Antlers Park, Minnesota
Current Conditions -  °F | °C
As of 4:24 AM on Thursday 18 Dec 2014 (Local Time) from KLVN Reporting Station
Clear Clear  
Wind Chill: -13°   Ceiling: Unl
Heat Index: -13°   Visibility: 10mi
Dew Point: -14°   Wind: 0mph
Humidity: 92%   Direction: NA
Pressure: 30.29"   Gusts: NA
Location:  44.6349°N, 93.283°W
Report Text: KLVN 181024Z AUTO 00000KT 10SM CLR M13/M14 A3029 RMK AO2
Loading
Personal Weather Stations






























Interactive Weather Map New forecast layout! Learn more

10-Day Weather Forecast

Advertisements
Track Severe Weather on mobile